Time;durP1;ratioP1;P1;durP2;ratioP2;P2;SDS_P1;SDS_P2;PMS_P1;PMS_P2;Temp;Humidity;BMP_temperature;BMP_pressure;BME280_temperature;BME280_humidity;BME280_pressure;Samples;Min_cycle;Max_cycle;Signal;HPM_P1;HPM_P2
2022/07/11 00:00:29;;;;;;;;;;;;;;;;;;1039677;28;1959;-49
2022/07/11 00:01:14;;;;;;;;;;;;;;;;;;1040728;28;3806;-48
2022/07/11 00:01:44;;;;;;;;;;;;;;;;;;1040588;28;3526;-49
2022/07/11 00:02:15;;;;;;;;;;;;;;;;;;1040723;28;3775;-51
2022/07/11 00:02:45;;;;;;;;;;;;;;;;;;1041395;28;3383;-49
2022/07/11 00:03:15;;;;;;;;;;;;;;;;;;1041650;28;3862;-49
2022/07/11 00:03:46;;;;;;;;;;;;;;;;;;1039727;28;3757;-48
2022/07/11 00:04:16;;;;;;;;;;;;;;;;;;1041377;28;4258;-52
2022/07/11 00:04:46;;;;;;;;;;;;;;;;;;1037779;28;1497;-51
2022/07/11 00:05:17;;;;;;;;;;;;;;;;;;1032426;28;3816;-51
2022/07/11 00:05:47;;;;;;;;;;;;;;;;;;1036111;28;3117;-51
2022/07/11 00:06:17;;;;;;;;;;;;;;;;;;1034193;28;3837;-55
2022/07/11 00:06:48;;;;;;;;;;;;;;;;;;1040832;28;4293;-49
2022/07/11 00:07:18;;;;;;;;;;;;;;;;;;1043712;28;4107;-50
2022/07/11 00:07:48;;;;;;;;;;;;;;;;;;1043817;28;2885;-52
2022/07/11 00:08:18;;;;;;;;;;;;;;;;;;1039248;28;4228;-52
2022/07/11 00:08:49;;;;;;;;;;;;;;;;;;1040021;28;3540;-50
2022/07/11 00:09:19;;;;;;;;;;;;;;;;;;1039359;28;4243;-54
2022/07/11 00:09:49;;;;;;;;;;;;;;;;;;1041013;28;3822;-50
2022/07/11 00:10:19;;;;;;;;;;;;;;;;;;1039443;28;4018;-48
2022/07/11 00:10:51;;;;;;;;;;;;;;;;;;1040213;28;2450;-47
2022/07/11 00:11:21;;;;;;;;;;;;;;;;;;1039095;28;3779;-49
2022/07/11 00:11:51;;;;;;;;;;;;;;;;;;1039573;28;2773;-54
2022/07/11 00:12:25;;;;;;;;;;;;;;;;;;1040013;28;3804;-49
2022/07/11 00:12:55;;;;;;;;;;;;;;;;;;1040392;28;4107;-53
2022/07/11 00:13:25;;;;;;;;;;;;;;;;;;1038804;28;2945;-50
2022/07/11 00:13:56;;;;;;;;;;;;;;;;;;1039063;28;3971;-46
2022/07/11 00:14:26;;;;;;;;;;;;;;;;;;1039248;28;2493;-49
2022/07/11 00:14:56;;;;;;;;;;;;;;;;;;1038834;28;4176;-52
2022/07/11 00:15:27;;;;;;;;;;;;;;;;;;1038805;28;3564;-51
2022/07/11 00:15:57;;;;;;;;;;;;;;;;;;1040473;28;4012;-49
2022/07/11 00:16:28;;;;;;;;;;;;;;;;;;1041099;28;3780;-50
2022/07/11 00:16:58;;;;;;;;;;;;;;;;;;1040829;28;4444;-48
2022/07/11 00:17:28;;;;;;;;;;;;;;;;;;1041456;28;3755;-52
2022/07/11 00:17:58;;;;;;;;;;;;;;;;;;1041174;28;4117;-46
2022/07/11 00:18:29;;;;;;;;;;;;;;;;;;1039759;28;3310;-48
2022/07/11 00:18:59;;;;;;;;;;;;;;;;;;1038663;28;3992;-49
2022/07/11 00:19:29;;;;;;;;;;;;;;;;;;1039854;28;3332;-51
2022/07/11 00:19:59;;;;;;;;;;;;;;;;;;1039699;28;3987;-51
2022/07/11 00:20:30;;;;;;;;;;;;;;;;;;1040980;28;3267;-52
2022/07/11 00:21:00;;;;;;;;;;;;;;;;;;1039355;28;4322;-48
2022/07/11 00:21:30;;;;;;;;;;;;;;;;;;1038888;28;3281;-51
2022/07/11 00:22:01;;;;;;;;;;;;;;;;;;1040157;28;4028;-53
2022/07/11 00:22:31;;;;;;;;;;;;;;;;;;1040759;28;1101;-50
2022/07/11 00:23:01;;;;;;;;;;;;;;;;;;1039147;28;4275;-50
2022/07/11 00:23:31;;;;;;;;;;;;;;;;;;1040609;28;3728;-49
2022/07/11 00:24:07;;;;;;;;;;;;;;;;;;1038077;28;4500;-51
2022/07/11 00:24:37;;;;;;;;;;;;;;;;;;1039749;28;3785;-50
2022/07/11 00:25:08;;;;;;;;;;;;;;;;;;1039041;28;3843;-49
2022/07/11 00:25:38;;;;;;;;;;;;;;;;;;1037534;28;4446;-50
2022/07/11 00:26:08;;;;;;;;;;;;;;;;;;1036748;28;4263;-51
2022/07/11 00:26:39;;;;;;;;;;;;;;;;;;1036976;28;3825;-52
2022/07/11 00:27:09;;;;;;;;;;;;;;;;;;1036479;28;4114;-50
2022/07/11 00:27:40;;;;;;;;;;;;;;;;;;1042373;28;1166;-50
2022/07/11 00:28:10;;;;;;;;;;;;;;;;;;1039081;28;3836;-49
2022/07/11 00:28:40;;;;;;;;;;;;;;;;;;1040377;28;3368;-51
2022/07/11 00:29:10;;;;;;;;;;;;;;;;;;1038828;28;4064;-50
2022/07/11 00:29:41;;;;;;;;;;;;;;;;;;1039782;28;1435;-50
2022/07/11 00:30:11;;;;;;;;;;;;;;;;;;1039619;28;4193;-55
2022/07/11 00:30:41;;;;;;;;;;;;;;;;;;1039533;28;2140;-50
2022/07/11 00:31:12;;;;;;;;;;;;;;;;;;1039949;28;4071;-48
2022/07/11 00:31:42;;;;;;;;;;;;;;;;;;1036563;28;3773;-48
2022/07/11 00:32:13;;;;;;;;;;;;;;;;;;1037158;28;4467;-50
2022/07/11 00:32:50;;;;;;;;;;;;;;;;;;1037408;28;3637;-48
2022/07/11 00:33:20;;;;;;;;;;;;;;;;;;1038768;28;4441;-51
2022/07/11 00:33:50;;;;;;;;;;;;;;;;;;1045329;28;3274;-50
2022/07/11 00:34:21;;;;;;;;;;;;;;;;;;1043897;28;4040;-49
2022/07/11 00:34:51;;;;;;;;;;;;;;;;;;1043699;28;3630;-52
2022/07/11 00:35:21;;;;;;;;;;;;;;;;;;1039409;28;3896;-52
2022/07/11 00:35:52;;;;;;;;;;;;;;;;;;1040182;28;3924;-51
2022/07/11 00:36:22;;;;;;;;;;;;;;;;;;1038817;28;4372;-48
2022/07/11 00:36:53;;;;;;;;;;;;;;;;;;1042283;28;3195;-52
2022/07/11 00:37:23;;;;;;;;;;;;;;;;;;1039920;28;3655;-49
2022/07/11 00:37:53;;;;;;;;;;;;;;;;;;1039722;28;3818;-52
2022/07/11 00:38:24;;;;;;;;;;;;;;;;;;1042004;28;1795;-47
2022/07/11 00:38:55;;;;;;;;;;;;;;;;;;1039545;28;4070;-54
2022/07/11 00:39:25;;;;;;;;;;;;;;;;;;1041488;28;4082;-50
2022/07/11 00:39:55;;;;;;;;;;;;;;;;;;1040847;28;4282;-52
2022/07/11 00:40:26;;;;;;;;;;;;;;;;;;1040601;28;3726;-52
2022/07/11 00:40:56;;;;;;;;;;;;;;;;;;1040080;28;4089;-50
2022/07/11 00:41:27;;;;;;;;;;;;;;;;;;1041589;28;2090;-49
2022/07/11 00:41:57;;;;;;;;;;;;;;;;;;1040392;28;3985;-51
2022/07/11 00:42:27;;;;;;;;;;;;;;;;;;1040297;28;2765;-50
2022/07/11 00:42:57;;;;;;;;;;;;;;;;;;1040394;28;3828;-49
2022/07/11 00:43:38;;;;;;;;;;;;;;;;;;1041422;28;1795;-51
2022/07/11 00:44:08;;;;;;;;;;;;;;;;;;1039275;28;3989;-48
2022/07/11 00:44:38;;;;;;;;;;;;;;;;;;1041438;28;3972;-48
2022/07/11 00:45:09;;;;;;;;;;;;;;;;;;1040493;28;3926;-49
2022/07/11 00:45:39;;;;;;;;;;;;;;;;;;1040745;28;1654;-51
2022/07/11 00:46:09;;;;;;;;;;;;;;;;;;1039098;28;4068;-49
2022/07/11 00:46:40;;;;;;;;;;;;;;;;;;1038077;28;1711;-49
2022/07/11 00:47:10;;;;;;;;;;;;;;;;;;1036748;28;4389;-51
2022/07/11 00:47:40;;;;;;;;;;;;;;;;;;1040986;28;3568;-50
2022/07/11 00:48:11;;;;;;;;;;;;;;;;;;1040818;28;3804;-49
2022/07/11 00:48:41;;;;;;;;;;;;;;;;;;1046078;28;3763;-49
2022/07/11 00:49:11;;;;;;;;;;;;;;;;;;1045267;28;4403;-49
2022/07/11 00:49:41;;;;;;;;;;;;;;;;;;1046573;28;3004;-53
2022/07/11 00:50:13;;;;;;;;;;;;;;;;;;1045416;28;4063;-52
2022/07/11 00:50:43;;;;;;;;;;;;;;;;;;1039444;28;3595;-52
2022/07/11 00:51:14;;;;;;;;;;;;;;;;;;1040290;28;3932;-51
2022/07/11 00:51:44;;;;;;;;;;;;;;;;;;1037916;28;3701;-53
2022/07/11 00:52:15;;;;;;;;;;;;;;;;;;1039775;28;4242;-48
2022/07/11 00:52:45;;;;;;;;;;;;;;;;;;1042827;28;1420;-50
2022/07/11 00:53:17;;;;;;;;;;;;;;;;;;1039330;28;4049;-48
2022/07/11 00:53:54;;;;;;;;;;;;;;;;;;1044365;28;1459;-54
2022/07/11 00:54:32;;;;;;;;;;;;;;;;;;1040558;28;3713;-50
2022/07/11 00:55:09;;;;;;;;;;;;;;;;;;1040805;28;4246;-47
2022/07/11 00:55:40;;;;;;;;;;;;;;;;;;1041648;28;3463;-46
2022/07/11 00:56:10;;;;;;;;;;;;;;;;;;1043639;28;3921;-50
2022/07/11 00:56:41;;;;;;;;;;;;;;;;;;1046715;28;1616;-49
2022/07/11 00:57:12;;;;;;;;;;;;;;;;;;1046096;28;5226;-50
2022/07/11 00:57:42;;;;;;;;;;;;;;;;;;1045210;28;1602;-49
2022/07/11 00:58:13;;;;;;;;;;;;;;;;;;1045254;28;3829;-52
2022/07/11 00:58:43;;;;;;;;;;;;;;;;;;1044929;28;3291;-51
2022/07/11 00:59:15;;;;;;;;;;;;;;;;;;1044128;28;4106;-49
2022/07/11 00:59:45;;;;;;;;;;;;;;;;;;1045470;28;3804;-48
2022/07/11 01:00:17;;;;;;;;;;;;;;;;;;1043952;28;4105;-51
2022/07/11 01:00:48;;;;;;;;;;;;;;;;;;1044424;28;3730;-48
2022/07/11 01:01:18;;;;;;;;;;;;;;;;;;1043837;28;4224;-49
2022/07/11 01:01:49;;;;;;;;;;;;;;;;;;1040131;28;3731;-48
2022/07/11 01:02:19;;;;;;;;;;;;;;;;;;1040568;28;4070;-50
2022/07/11 01:02:49;;;;;;;;;;;;;;;;;;1041647;28;1577;-45
2022/07/11 01:03:19;;;;;;;;;;;;;;;;;;1041008;28;3945;-47
2022/07/11 01:03:50;;;;;;;;;;;;;;;;;;1043490;28;3633;-47
2022/07/11 01:04:21;;;;;;;;;;;;;;;;;;1045190;28;3864;-49
2022/07/11 01:04:52;;;;;;;;;;;;;;;;;;1042486;28;3838;-49
2022/07/11 01:05:22;;;;;;;;;;;;;;;;;;1041139;28;3969;-49
2022/07/11 01:05:52;;;;;;;;;;;;;;;;;;1040057;28;3825;-49
2022/07/11 01:06:23;;;;;;;;;;;;;;;;;;1041823;28;3735;-53
2022/07/11 01:06:53;;;;;;;;;;;;;;;;;;1040128;28;4012;-47
2022/07/11 01:07:30;;;;;;;;;;;;;;;;;;1044252;28;2894;-51
2022/07/11 01:08:00;;;;;;;;;;;;;;;;;;1045045;28;3812;-49
2022/07/11 01:08:31;;;;;;;;;;;;;;;;;;1045045;28;1806;-48
2022/07/11 01:09:02;;;;;;;;;;;;;;;;;;1042530;28;4287;-49
2022/07/11 01:09:32;;;;;;;;;;;;;;;;;;1045211;28;2632;-47
2022/07/11 01:10:02;;;;;;;;;;;;;;;;;;1044914;28;4425;-49
2022/07/11 01:10:33;;;;;;;;;;;;;;;;;;1045298;28;3799;-49
2022/07/11 01:11:04;;;;;;;;;;;;;;;;;;1041420;28;4446;-48
2022/07/11 01:11:34;;;;;;;;;;;;;;;;;;1042771;28;1853;-49
2022/07/11 01:12:05;;;;;;;;;;;;;;;;;;1035248;28;4480;-47
2022/07/11 01:12:35;;;;;;;;;;;;;;;;;;1032341;28;1622;-49
2022/07/11 01:13:07;;;;;;;;;;;;;;;;;;1030861;28;4105;-48
2022/07/11 01:13:38;;;;;;;;;;;;;;;;;;1033257;28;2943;-50
2022/07/11 01:14:08;;;;;;;;;;;;;;;;;;1036360;28;4429;-51
2022/07/11 01:14:38;;;;;;;;;;;;;;;;;;1039968;28;3263;-48
2022/07/11 01:15:10;;;;;;;;;;;;;;;;;;1042149;28;4136;-46
2022/07/11 01:15:40;;;;;;;;;;;;;;;;;;1046374;28;2667;-47
2022/07/11 01:16:12;;;;;;;;;;;;;;;;;;1042829;28;4008;-51
2022/07/11 01:16:43;;;;;;;;;;;;;;;;;;1045643;28;3657;-50
2022/07/11 01:17:13;;;;;;;;;;;;;;;;;;1040509;28;4027;-50
2022/07/11 01:17:43;;;;;;;;;;;;;;;;;;1040554;28;2500;-48
2022/07/11 01:18:13;;;;;;;;;;;;;;;;;;1039124;28;4417;-50
2022/07/11 01:18:45;;;;;;;;;;;;;;;;;;1040900;28;2722;-51
2022/07/11 01:19:15;;;;;;;;;;;;;;;;;;1044282;28;4023;-49
2022/07/11 01:19:45;;;;;;;;;;;;;;;;;;1041322;28;2344;-46
2022/07/11 01:20:16;;;;;;;;;;;;;;;;;;1040950;28;4322;-46
2022/07/11 01:20:46;;;;;;;;;;;;;;;;;;1039911;28;3617;-52
2022/07/11 01:21:21;;;;;;;;;;;;;;;;;;1040937;28;4446;-50
2022/07/11 01:21:51;;;;;;;;;;;;;;;;;;1045260;28;2511;-48
2022/07/11 01:22:24;;;;;;;;;;;;;;;;;;1043095;28;3899;-48
2022/07/11 01:22:56;;;;;;;;;;;;;;;;;;1040185;28;3978;-51
2022/07/11 01:23:26;;;;;;;;;;;;;;;;;;1040142;28;3362;-48
2022/07/11 01:23:58;;;;;;;;;;;;;;;;;;1040297;28;4418;-50
2022/07/11 01:24:29;;;;;;;;;;;;;;;;;;1041989;28;1639;-52
2022/07/11 01:24:59;;;;;;;;;;;;;;;;;;1040646;28;4323;-49
2022/07/11 01:25:32;;;;;;;;;;;;;;;;;;1045777;28;3118;-48
2022/07/11 01:26:03;;;;;;;;;;;;;;;;;;1045275;28;4444;-49
2022/07/11 01:26:33;;;;;;;;;;;;;;;;;;1045267;28;3563;-51
2022/07/11 01:27:10;;;;;;;;;;;;;;;;;;1042954;28;4049;-50
2022/07/11 01:27:41;;;;;;;;;;;;;;;;;;1046076;28;4030;-51
2022/07/11 01:28:11;;;;;;;;;;;;;;;;;;1043683;28;3934;-48
2022/07/11 01:28:41;;;;;;;;;;;;;;;;;;1044273;28;3341;-49
2022/07/11 01:29:12;;;;;;;;;;;;;;;;;;1043424;28;4079;-49
2022/07/11 01:29:42;;;;;;;;;;;;;;;;;;1041451;28;3950;-47
2022/07/11 01:30:13;;;;;;;;;;;;;;;;;;1039472;28;3867;-49
2022/07/11 01:30:43;;;;;;;;;;;;;;;;;;1041247;28;3391;-46
2022/07/11 01:31:13;;;;;;;;;;;;;;;;;;1036540;28;4128;-50
2022/07/11 01:31:44;;;;;;;;;;;;;;;;;;1040463;28;1356;-49
2022/07/11 01:32:17;;;;;;;;;;;;;;;;;;1039958;28;4478;-48
2022/07/11 01:32:47;;;;;;;;;;;;;;;;;;1042071;28;3551;-48
2022/07/11 01:33:17;;;;;;;;;;;;;;;;;;1043960;28;4411;-46
2022/07/11 01:33:48;;;;;;;;;;;;;;;;;;1044051;28;3211;-48
2022/07/11 01:34:18;;;;;;;;;;;;;;;;;;1044204;28;3822;-50
2022/07/11 01:34:48;;;;;;;;;;;;;;;;;;1040899;28;3718;-47
2022/07/11 01:35:19;;;;;;;;;;;;;;;;;;1040944;28;4240;-53
2022/07/11 01:35:49;;;;;;;;;;;;;;;;;;1038301;28;2896;-48
2022/07/11 01:36:19;;;;;;;;;;;;;;;;;;1036667;28;4075;-49
2022/07/11 01:36:50;;;;;;;;;;;;;;;;;;1042938;28;1570;-53
2022/07/11 01:37:20;;;;;;;;;;;;;;;;;;1041486;28;3852;-50
2022/07/11 01:37:50;;;;;;;;;;;;;;;;;;1044422;28;3255;-48
2022/07/11 01:38:21;;;;;;;;;;;;;;;;;;1045399;28;4085;-52
2022/07/11 01:38:51;;;;;;;;;;;;;;;;;;1046115;28;4001;-50
2022/07/11 01:39:21;;;;;;;;;;;;;;;;;;1045676;28;3816;-46
2022/07/11 01:39:52;;;;;;;;;;;;;;;;;;1045228;28;1635;-50
2022/07/11 01:40:22;;;;;;;;;;;;;;;;;;1044562;28;4005;-52
2022/07/11 01:40:52;;;;;;;;;;;;;;;;;;1044654;28;3059;-48
2022/07/11 01:41:23;;;;;;;;;;;;;;;;;;1043680;28;3761;-48
2022/07/11 01:41:53;;;;;;;;;;;;;;;;;;1038883;28;4487;-52
2022/07/11 01:42:23;;;;;;;;;;;;;;;;;;1039353;28;4062;-51
2022/07/11 01:42:54;;;;;;;;;;;;;;;;;;1039281;28;3884;-48
2022/07/11 01:43:24;;;;;;;;;;;;;;;;;;1041332;28;3658;-50
2022/07/11 01:43:55;;;;;;;;;;;;;;;;;;1043354;28;4504;-47
2022/07/11 01:44:25;;;;;;;;;;;;;;;;;;1046017;28;1714;-52
2022/07/11 01:44:56;;;;;;;;;;;;;;;;;;1044144;28;4123;-51
2022/07/11 01:45:26;;;;;;;;;;;;;;;;;;1042865;28;3712;-50
2022/07/11 01:45:57;;;;;;;;;;;;;;;;;;1040538;28;3798;-52
2022/07/11 01:46:27;;;;;;;;;;;;;;;;;;1037417;28;2660;-48
2022/07/11 01:46:57;;;;;;;;;;;;;;;;;;1034037;28;3892;-50
2022/07/11 01:47:28;;;;;;;;;;;;;;;;;;1035960;28;4069;-50
2022/07/11 01:47:58;;;;;;;;;;;;;;;;;;1038914;28;3800;-47
2022/07/11 01:48:28;;;;;;;;;;;;;;;;;;1041350;28;3995;-50
2022/07/11 01:48:58;;;;;;;;;;;;;;;;;;1040421;28;3852;-49
2022/07/11 01:49:29;;;;;;;;;;;;;;;;;;1043481;28;1704;-47
2022/07/11 01:49:59;;;;;;;;;;;;;;;;;;1041818;28;3827;-48
2022/07/11 01:50:30;;;;;;;;;;;;;;;;;;1045187;28;3579;-50
2022/07/11 01:51:00;;;;;;;;;;;;;;;;;;1044421;28;4044;-50
2022/07/11 01:51:31;;;;;;;;;;;;;;;;;;1045873;28;3414;-48
2022/07/11 01:52:01;;;;;;;;;;;;;;;;;;1040531;28;3917;-51
2022/07/11 01:52:32;;;;;;;;;;;;;;;;;;1040957;28;1318;-51
2022/07/11 01:53:02;;;;;;;;;;;;;;;;;;1040460;28;3889;-51
2022/07/11 01:53:39;;;;;;;;;;;;;;;;;;1041387;28;1556;-50
2022/07/11 01:54:17;;;;;;;;;;;;;;;;;;1038872;28;5110;-49
2022/07/11 01:54:54;;;;;;;;;;;;;;;;;;1037200;28;4037;-48
2022/07/11 01:55:24;;;;;;;;;;;;;;;;;;1037203;28;3680;-50
2022/07/11 01:55:54;;;;;;;;;;;;;;;;;;1036911;28;4009;-47
2022/07/11 01:56:27;;;;;;;;;;;;;;;;;;1034498;28;1658;-48
2022/07/11 01:56:57;;;;;;;;;;;;;;;;;;1034067;28;4329;-52
2022/07/11 01:57:27;;;;;;;;;;;;;;;;;;1036241;28;4393;-49
2022/07/11 01:57:57;;;;;;;;;;;;;;;;;;1035243;28;3913;-50
2022/07/11 01:58:30;;;;;;;;;;;;;;;;;;1037253;28;2881;-50
2022/07/11 01:59:01;;;;;;;;;;;;;;;;;;1034941;28;3850;-51
2022/07/11 01:59:31;;;;;;;;;;;;;;;;;;1036685;28;3719;-49
2022/07/11 02:00:02;;;;;;;;;;;;;;;;;;1035570;28;4032;-51
2022/07/11 02:00:33;;;;;;;;;;;;;;;;;;1036210;28;1720;-53
2022/07/11 02:01:03;;;;;;;;;;;;;;;;;;1035807;28;4055;-50
2022/07/11 02:01:33;;;;;;;;;;;;;;;;;;1036803;28;2330;-49
2022/07/11 02:02:04;;;;;;;;;;;;;;;;;;1031808;28;4061;-50
2022/07/11 02:02:34;;;;;;;;;;;;;;;;;;1033199;28;3792;-51
2022/07/11 02:03:04;;;;;;;;;;;;;;;;;;1032701;28;3833;-47
2022/07/11 02:03:37;;;;;;;;;;;;;;;;;;1038252;28;1683;-47
2022/07/11 02:04:08;;;;;;;;;;;;;;;;;;1036041;28;4395;-53
2022/07/11 02:04:38;;;;;;;;;;;;;;;;;;1035589;28;3419;-53
2022/07/11 02:05:08;;;;;;;;;;;;;;;;;;1035357;28;4052;-51
2022/07/11 02:05:41;;;;;;;;;;;;;;;;;;1029237;28;4128;-50
2022/07/11 02:06:12;;;;;;;;;;;;;;;;;;1024632;28;4025;-52
2022/07/11 02:06:42;;;;;;;;;;;;;;;;;;1026774;28;2963;-53
2022/07/11 02:07:14;;;;;;;;;;;;;;;;;;1022200;28;4416;-50
2022/07/11 02:08:34;;;;;;;;;;;;;;;;;;1035011;28;3929;-49
2022/07/11 02:09:04;;;;;;;;;;;;;;;;;;1036058;28;3914;-49
2022/07/11 02:09:34;;;;;;;;;;;;;;;;;;1036698;28;1612;-49
2022/07/11 02:10:05;;;;;;;;;;;;;;;;;;1041799;28;3815;-47
2022/07/11 02:10:35;;;;;;;;;;;;;;;;;;1040220;28;3844;-47
2022/07/11 02:11:05;;;;;;;;;;;;;;;;;;1041592;28;4261;-48
2022/07/11 02:11:36;;;;;;;;;;;;;;;;;;1041350;28;1648;-52
2022/07/11 02:12:06;;;;;;;;;;;;;;;;;;1034305;28;3875;-49
2022/07/11 02:12:37;;;;;;;;;;;;;;;;;;1035686;28;3954;-50
2022/07/11 02:13:09;;;;;;;;;;;;;;;;;;1036693;28;3812;-53
2022/07/11 02:13:39;;;;;;;;;;;;;;;;;;1036982;28;2824;-47
2022/07/11 02:14:10;;;;;;;;;;;;;;;;;;1037385;28;4419;-48
2022/07/11 02:14:40;;;;;;;;;;;;;;;;;;1037082;28;3473;-51
2022/07/11 02:15:10;;;;;;;;;;;;;;;;;;1035383;28;4035;-47
2022/07/11 02:15:41;;;;;;;;;;;;;;;;;;1037065;28;2979;-50
2022/07/11 02:16:12;;;;;;;;;;;;;;;;;;1035497;28;4212;-52
2022/07/11 02:16:42;;;;;;;;;;;;;;;;;;1036695;28;1601;-50
2022/07/11 02:17:13;;;;;;;;;;;;;;;;;;1033587;28;4452;-49
2022/07/11 02:17:43;;;;;;;;;;;;;;;;;;1035409;28;3825;-49
2022/07/11 02:18:14;;;;;;;;;;;;;;;;;;1036300;28;4156;-51
2022/07/11 02:18:44;;;;;;;;;;;;;;;;;;1037029;28;1459;-51
2022/07/11 02:19:15;;;;;;;;;;;;;;;;;;1035090;28;3874;-51
2022/07/11 02:19:46;;;;;;;;;;;;;;;;;;1037590;28;1732;-49
2022/07/11 02:20:16;;;;;;;;;;;;;;;;;;1036447;28;3983;-52
2022/07/11 02:20:48;;;;;;;;;;;;;;;;;;1036072;28;3391;-49
2022/07/11 02:21:19;;;;;;;;;;;;;;;;;;1035699;28;6035;-52
2022/07/11 02:21:49;;;;;;;;;;;;;;;;;;1034269;28;6650;-56
2022/07/11 02:22:19;;;;;;;;;;;;;;;;;;1034702;28;3823;-50
2022/07/11 02:22:50;;;;;;;;;;;;;;;;;;1035358;28;1376;-52
2022/07/11 02:23:20;;;;;;;;;;;;;;;;;;1036059;28;3781;-49
2022/07/11 02:23:51;;;;;;;;;;;;;;;;;;1037571;28;1677;-52
2022/07/11 02:24:21;;;;;;;;;;;;;;;;;;1035301;28;3833;-50
2022/07/11 02:24:51;;;;;;;;;;;;;;;;;;1037047;28;1688;-49
2022/07/11 02:25:23;;;;;;;;;;;;;;;;;;1035584;28;3760;-53
2022/07/11 02:26:00;;;;;;;;;;;;;;;;;;1034747;28;4428;-48
2022/07/11 02:26:30;;;;;;;;;;;;;;;;;;1036122;28;2909;-49
2022/07/11 02:27:00;;;;;;;;;;;;;;;;;;1035496;28;4264;-51
2022/07/11 02:27:31;;;;;;;;;;;;;;;;;;1040183;28;3525;-50
2022/07/11 02:28:01;;;;;;;;;;;;;;;;;;1039975;28;4759;-53
2022/07/11 02:28:34;;;;;;;;;;;;;;;;;;1040202;28;1464;-50
2022/07/11 02:29:04;;;;;;;;;;;;;;;;;;1037665;28;4456;-46
2022/07/11 02:29:34;;;;;;;;;;;;;;;;;;1042301;28;1662;-47
2022/07/11 02:30:05;;;;;;;;;;;;;;;;;;1040726;28;3908;-47
2022/07/11 02:30:35;;;;;;;;;;;;;;;;;;1042180;28;2397;-48
2022/07/11 02:31:06;;;;;;;;;;;;;;;;;;1035028;28;4072;-47
2022/07/11 02:31:36;;;;;;;;;;;;;;;;;;1037431;28;1640;-55
2022/07/11 02:32:07;;;;;;;;;;;;;;;;;;1034980;28;3951;-49
2022/07/11 02:32:37;;;;;;;;;;;;;;;;;;1038014;28;1649;-49
2022/07/11 02:33:08;;;;;;;;;;;;;;;;;;1037675;28;3910;-51
2022/07/11 02:33:38;;;;;;;;;;;;;;;;;;1038353;28;1714;-49
2022/07/11 02:34:08;;;;;;;;;;;;;;;;;;1037376;28;4438;-51
2022/07/11 02:34:39;;;;;;;;;;;;;;;;;;1035931;28;2572;-50
2022/07/11 02:35:09;;;;;;;;;;;;;;;;;;1035558;28;4398;-48
2022/07/11 02:35:39;;;;;;;;;;;;;;;;;;1037455;28;1685;-49
2022/07/11 02:36:10;;;;;;;;;;;;;;;;;;1034962;28;3888;-50
2022/07/11 02:36:40;;;;;;;;;;;;;;;;;;1035960;28;3386;-51
2022/07/11 02:37:10;;;;;;;;;;;;;;;;;;1033893;28;4314;-49
2022/07/11 02:37:41;;;;;;;;;;;;;;;;;;1036192;28;3818;-52
2022/07/11 02:38:12;;;;;;;;;;;;;;;;;;1034870;28;3989;-50
2022/07/11 02:38:42;;;;;;;;;;;;;;;;;;1036925;28;1614;-49
2022/07/11 02:39:12;;;;;;;;;;;;;;;;;;1034994;28;3826;-47
2022/07/11 02:39:43;;;;;;;;;;;;;;;;;;1036396;28;1575;-53
2022/07/11 02:40:14;;;;;;;;;;;;;;;;;;1035867;28;3850;-52
2022/07/11 02:40:51;;;;;;;;;;;;;;;;;;1035669;28;3524;-52
2022/07/11 02:41:21;;;;;;;;;;;;;;;;;;1034816;28;4322;-50
2022/07/11 02:41:52;;;;;;;;;;;;;;;;;;1035794;28;3867;-52
2022/07/11 02:42:22;;;;;;;;;;;;;;;;;;1034954;28;3986;-52
2022/07/11 02:42:53;;;;;;;;;;;;;;;;;;1036692;28;3222;-51
2022/07/11 02:43:23;;;;;;;;;;;;;;;;;;1037120;28;3971;-49
2022/07/11 02:43:53;;;;;;;;;;;;;;;;;;1037177;28;4446;-52
2022/07/11 02:44:24;;;;;;;;;;;;;;;;;;1036765;28;2807;-49
2022/07/11 02:44:54;;;;;;;;;;;;;;;;;;1041131;28;3994;-50
2022/07/11 02:45:24;;;;;;;;;;;;;;;;;;1040638;28;3476;-50
2022/07/11 02:45:55;;;;;;;;;;;;;;;;;;1035107;28;4266;-51
2022/07/11 02:46:25;;;;;;;;;;;;;;;;;;1036812;28;1996;-50
2022/07/11 02:46:55;;;;;;;;;;;;;;;;;;1036646;28;3987;-50
2022/07/11 02:47:26;;;;;;;;;;;;;;;;;;1034206;28;3349;-54
2022/07/11 02:47:56;;;;;;;;;;;;;;;;;;1036123;28;3970;-47
2022/07/11 02:48:26;;;;;;;;;;;;;;;;;;1035421;28;3682;-47
2022/07/11 02:48:57;;;;;;;;;;;;;;;;;;1035191;28;4034;-50
2022/07/11 02:49:27;;;;;;;;;;;;;;;;;;1035639;28;3865;-47
2022/07/11 02:49:57;;;;;;;;;;;;;;;;;;1035707;28;3973;-51
2022/07/11 02:50:27;;;;;;;;;;;;;;;;;;1036665;28;3027;-51
2022/07/11 02:50:58;;;;;;;;;;;;;;;;;;1037227;28;3831;-51
2022/07/11 02:51:28;;;;;;;;;;;;;;;;;;1028832;28;1811;-51
2022/07/11 02:51:58;;;;;;;;;;;;;;;;;;1025257;28;3936;-49
2022/07/11 02:52:29;;;;;;;;;;;;;;;;;;1028568;28;3392;-51
2022/07/11 02:52:59;;;;;;;;;;;;;;;;;;1028762;28;3807;-48
2022/07/11 02:53:29;;;;;;;;;;;;;;;;;;1037228;28;1698;-49
2022/07/11 02:54:06;;;;;;;;;;;;;;;;;;1041811;28;3827;-48
2022/07/11 02:54:37;;;;;;;;;;;;;;;;;;1045584;28;1679;-50
2022/07/11 02:55:11;;;;;;;;;;;;;;;;;;1044601;28;4046;-50
2022/07/11 02:55:41;;;;;;;;;;;;;;;;;;1044469;28;2970;-49
2022/07/11 02:56:12;;;;;;;;;;;;;;;;;;1042681;28;4235;-49
2022/07/11 02:56:43;;;;;;;;;;;;;;;;;;1045655;28;1566;-49
2022/07/11 02:57:13;;;;;;;;;;;;;;;;;;1038878;28;4009;-48
2022/07/11 02:57:43;;;;;;;;;;;;;;;;;;1040288;28;3627;-49
2022/07/11 02:58:14;;;;;;;;;;;;;;;;;;1040177;28;4262;-50
2022/07/11 02:58:45;;;;;;;;;;;;;;;;;;1040980;28;3694;-50
2022/07/11 02:59:15;;;;;;;;;;;;;;;;;;1043323;28;4062;-48
2022/07/11 02:59:45;;;;;;;;;;;;;;;;;;1043381;28;3636;-51
2022/07/11 03:00:16;;;;;;;;;;;;;;;;;;1040391;28;3889;-47
2022/07/11 03:00:46;;;;;;;;;;;;;;;;;;1040563;28;3755;-50
2022/07/11 03:01:19;;;;;;;;;;;;;;;;;;1041273;28;3771;-51
2022/07/11 03:01:50;;;;;;;;;;;;;;;;;;1040427;28;2083;-48
2022/07/11 03:02:20;;;;;;;;;;;;;;;;;;1043972;28;3964;-52
2022/07/11 03:02:50;;;;;;;;;;;;;;;;;;1044996;28;2039;-52
2022/07/11 03:03:21;;;;;;;;;;;;;;;;;;1044408;28;3853;-49
2022/07/11 03:03:51;;;;;;;;;;;;;;;;;;1043879;28;3089;-48
2022/07/11 03:04:21;;;;;;;;;;;;;;;;;;1039992;28;4035;-49
2022/07/11 03:04:51;;;;;;;;;;;;;;;;;;1040650;28;3781;-54
2022/07/11 03:05:22;;;;;;;;;;;;;;;;;;1041103;28;4063;-48
2022/07/11 03:05:52;;;;;;;;;;;;;;;;;;1039283;28;2445;-48
2022/07/11 03:06:22;;;;;;;;;;;;;;;;;;1045022;28;4174;-48
2022/07/11 03:06:53;;;;;;;;;;;;;;;;;;1038707;28;3731;-48
2022/07/11 03:07:27;;;;;;;;;;;;;;;;;;1035714;28;3676;-54
2022/07/11 03:07:58;;;;;;;;;;;;;;;;;;1034617;28;3913;-47
2022/07/11 03:08:28;;;;;;;;;;;;;;;;;;1036955;28;2766;-52
2022/07/11 03:08:58;;;;;;;;;;;;;;;;;;1040702;28;3932;-47
2022/07/11 03:09:28;;;;;;;;;;;;;;;;;;1045992;28;3553;-47
2022/07/11 03:09:59;;;;;;;;;;;;;;;;;;1043585;28;3802;-50
2022/07/11 03:10:29;;;;;;;;;;;;;;;;;;1044108;28;3192;-50
2022/07/11 03:10:59;;;;;;;;;;;;;;;;;;1042971;28;4316;-51
2022/07/11 03:11:29;;;;;;;;;;;;;;;;;;1044710;28;1711;-49
2022/07/11 03:12:01;;;;;;;;;;;;;;;;;;1044154;28;3808;-53
2022/07/11 03:12:31;;;;;;;;;;;;;;;;;;1045654;28;3219;-48
2022/07/11 03:13:02;;;;;;;;;;;;;;;;;;1043744;28;4718;-50
2022/07/11 03:13:32;;;;;;;;;;;;;;;;;;1041265;28;3820;-52
2022/07/11 03:14:02;;;;;;;;;;;;;;;;;;1035193;28;4248;-47
2022/07/11 03:14:32;;;;;;;;;;;;;;;;;;1038505;28;2173;-50
2022/07/11 03:15:03;;;;;;;;;;;;;;;;;;1036515;28;4189;-53
2022/07/11 03:15:33;;;;;;;;;;;;;;;;;;1041313;28;3784;-50
2022/07/11 03:16:05;;;;;;;;;;;;;;;;;;1045140;28;4277;-52
2022/07/11 03:16:35;;;;;;;;;;;;;;;;;;1045857;28;2943;-48
2022/07/11 03:17:05;;;;;;;;;;;;;;;;;;1041196;28;4035;-49
2022/07/11 03:17:36;;;;;;;;;;;;;;;;;;1041381;28;2992;-52
2022/07/11 03:18:07;;;;;;;;;;;;;;;;;;1040247;28;3994;-51
2022/07/11 03:18:37;;;;;;;;;;;;;;;;;;1041825;28;1939;-48
2022/07/11 03:19:07;;;;;;;;;;;;;;;;;;1041037;28;4643;-51
2022/07/11 03:19:38;;;;;;;;;;;;;;;;;;1041146;28;3654;-51
2022/07/11 03:20:08;;;;;;;;;;;;;;;;;;1040328;28;3864;-53
2022/07/11 03:20:39;;;;;;;;;;;;;;;;;;1040210;28;3470;-51
2022/07/11 03:21:09;;;;;;;;;;;;;;;;;;1040095;28;4424;-50
2022/07/11 03:21:39;;;;;;;;;;;;;;;;;;1040085;28;1913;-46
2022/07/11 03:22:10;;;;;;;;;;;;;;;;;;1039909;28;3898;-50
2022/07/11 03:22:40;;;;;;;;;;;;;;;;;;1038043;28;2076;-51
2022/07/11 03:23:10;;;;;;;;;;;;;;;;;;1040889;28;4247;-50
2022/07/11 03:23:41;;;;;;;;;;;;;;;;;;1041519;28;3514;-51
2022/07/11 03:24:11;;;;;;;;;;;;;;;;;;1041009;28;4322;-48
2022/07/11 03:24:42;;;;;;;;;;;;;;;;;;1043555;28;3659;-51
2022/07/11 03:25:12;;;;;;;;;;;;;;;;;;1044085;28;3796;-47
2022/07/11 03:25:42;;;;;;;;;;;;;;;;;;1041161;28;1921;-54
2022/07/11 03:26:12;;;;;;;;;;;;;;;;;;1041802;28;4068;-46
2022/07/11 03:26:43;;;;;;;;;;;;;;;;;;1038096;28;1720;-48
2022/07/11 03:27:13;;;;;;;;;;;;;;;;;;1037643;28;4206;-48
2022/07/11 03:27:43;;;;;;;;;;;;;;;;;;1038192;28;4124;-52
2022/07/11 03:28:13;;;;;;;;;;;;;;;;;;1039854;28;3801;-48
2022/07/11 03:28:44;;;;;;;;;;;;;;;;;;1040989;28;3621;-54
2022/07/11 03:29:14;;;;;;;;;;;;;;;;;;1034514;28;3953;-51
2022/07/11 03:29:45;;;;;;;;;;;;;;;;;;1036158;28;4107;-49
2022/07/11 03:30:15;;;;;;;;;;;;;;;;;;1032934;28;3959;-50
2022/07/11 03:30:45;;;;;;;;;;;;;;;;;;1038284;28;3789;-49
2022/07/11 03:31:16;;;;;;;;;;;;;;;;;;1038597;28;3785;-50
2022/07/11 03:31:46;;;;;;;;;;;;;;;;;;1037993;28;3477;-49
2022/07/11 03:32:20;;;;;;;;;;;;;;;;;;1039718;28;4400;-49
2022/07/11 03:32:50;;;;;;;;;;;;;;;;;;1040652;28;1751;-49
2022/07/11 03:33:21;;;;;;;;;;;;;;;;;;1045670;28;4231;-52
2022/07/11 03:33:58;;;;;;;;;;;;;;;;;;1043859;28;4083;-48
2022/07/11 03:34:28;;;;;;;;;;;;;;;;;;1045044;28;4420;-50
2022/07/11 03:35:47;;;;;;;;;;;;;;;;;;1043567;28;3408;-51